createdAt,value
2018-10-18T00:01:23.229Z,24.23
2018-10-18T00:03:51.908Z,23.90
2018-10-18T00:06:20.616Z,23.93
2018-10-18T00:08:49.305Z,26.20
2018-10-18T00:11:18.027Z,26.73
2018-10-18T00:13:46.703Z,24.83
2018-10-18T00:16:15.395Z,24.50
2018-10-18T00:18:44.077Z,24.63
2018-10-18T00:21:12.763Z,22.10
2018-10-18T00:23:41.448Z,21.67
2018-10-18T00:26:10.220Z,21.50
2018-10-18T00:28:38.819Z,21.23
2018-10-18T00:31:07.499Z,23.03
2018-10-18T00:33:36.183Z,21.40
2018-10-18T00:36:05.324Z,21.60
2018-10-18T00:38:33.935Z,20.37
2018-10-18T00:41:02.624Z,20.57
2018-10-18T00:43:31.309Z,24.70
2018-10-18T00:46:00.028Z,22.70
2018-10-18T00:48:28.699Z,22.73
2018-10-18T00:50:57.376Z,23.27
2018-10-18T00:53:26.080Z,22.23
2018-10-18T00:55:54.805Z,21.13
2018-10-18T00:58:24.188Z,20.97
2018-10-18T01:00:52.881Z,20.03
2018-10-18T01:03:21.580Z,23.47
2018-10-18T01:05:50.264Z,21.93
2018-10-18T01:08:18.959Z,20.37
2018-10-18T01:10:47.727Z,24.97
2018-10-18T01:13:16.412Z,23.30
2018-10-18T01:15:45.191Z,24.12
2018-10-18T01:18:13.957Z,22.87
2018-10-18T01:20:42.567Z,23.80
2018-10-18T01:23:11.251Z,26.03
2018-10-18T01:25:39.928Z,25.60
2018-10-18T01:28:08.619Z,25.30
2018-10-18T01:30:37.335Z,29.00
2018-10-18T01:33:06.141Z,27.83
2018-10-18T01:35:34.819Z,27.20
2018-10-18T01:38:03.537Z,27.00
2018-10-18T01:40:32.176Z,28.63
2018-10-18T01:43:00.859Z,28.47
2018-10-18T01:45:29.543Z,27.50
2018-10-18T01:47:58.242Z,28.17
2018-10-18T01:50:26.912Z,28.93
2018-10-18T01:52:55.595Z,24.07
2018-10-18T01:55:24.273Z,25.57
2018-10-18T01:57:52.957Z,25.87
2018-10-18T02:00:22.431Z,26.37
2018-10-18T02:02:51.115Z,24.27
2018-10-18T02:05:19.789Z,25.67
2018-10-18T02:07:48.468Z,27.55
2018-10-18T02:10:17.135Z,27.50
2018-10-18T02:12:45.816Z,27.27
2018-10-18T02:15:14.499Z,26.15
2018-10-18T02:17:43.164Z,28.67
2018-10-18T02:20:11.842Z,25.53
2018-10-18T02:22:41.095Z,28.02
2018-10-18T02:25:09.818Z,28.60
2018-10-18T02:27:39.180Z,25.50
2018-10-18T02:30:07.901Z,23.90
2018-10-18T02:32:36.555Z,23.73
2018-10-18T02:35:06.042Z,26.02
2018-10-18T02:37:34.724Z,23.63
2018-10-18T02:40:03.391Z,26.60
2018-10-18T02:42:32.074Z,28.30
2018-10-18T02:45:00.775Z,24.67
2018-10-18T02:47:29.456Z,24.23
2018-10-18T02:49:58.136Z,24.80
2018-10-18T02:52:26.824Z,24.60
2018-10-18T02:54:55.503Z,26.83
2018-10-18T02:57:24.231Z,25.33
2018-10-18T02:59:52.927Z,27.37
2018-10-18T03:02:21.612Z,24.90
2018-10-18T03:04:50.287Z,24.37
2018-10-18T03:07:18.967Z,27.30
2018-10-18T03:09:47.647Z,28.00
2018-10-18T03:12:16.339Z,24.93
2018-10-18T03:14:45.028Z,24.07
2018-10-18T03:17:13.712Z,25.13
2018-10-18T03:19:42.390Z,24.47
2018-10-18T03:22:11.080Z,23.10
2018-10-18T03:24:39.772Z,22.57
2018-10-18T03:27:08.442Z,26.23
2018-10-18T03:29:37.144Z,23.93
2018-10-18T03:32:05.823Z,27.83
2018-10-18T03:34:34.511Z,28.53
2018-10-18T03:37:03.192Z,23.50
2018-10-18T03:39:31.879Z,28.10
2018-10-18T03:42:00.609Z,26.67
2018-10-18T03:44:29.259Z,27.53
2018-10-18T03:46:57.948Z,27.10
2018-10-18T03:49:26.640Z,28.33
2018-10-18T03:51:55.307Z,26.87
2018-10-18T03:54:24.039Z,26.40
2018-10-18T03:56:52.760Z,26.00
2018-10-18T03:59:21.446Z,23.47
2018-10-18T04:01:50.122Z,22.70
2018-10-18T04:04:18.795Z,22.10
2018-10-18T04:06:47.479Z,23.43
2018-10-18T04:09:16.163Z,23.40
2018-10-18T04:11:44.836Z,23.60
2018-10-18T04:14:13.512Z,27.73
2018-10-18T04:16:42.186Z,27.37
2018-10-18T04:19:10.867Z,27.83
2018-10-18T04:21:39.539Z,31.73
2018-10-18T04:24:08.270Z,25.87
2018-10-18T04:26:36.913Z,26.13
2018-10-18T04:29:05.616Z,26.43
2018-10-18T04:31:34.283Z,28.70
2018-10-18T04:34:02.971Z,25.37
2018-10-18T04:36:31.662Z,31.20
2018-10-18T04:39:00.362Z,31.87
2018-10-18T04:41:29.486Z,25.62
2018-10-18T04:43:58.171Z,31.65
2018-10-18T04:46:26.856Z,28.60
2018-10-18T04:48:55.592Z,29.93
2018-10-18T04:51:24.219Z,28.02
2018-10-18T04:53:52.907Z,32.70
2018-10-18T04:56:21.582Z,28.73
2018-10-18T04:58:50.268Z,31.60
2018-10-18T05:01:18.992Z,30.33
2018-10-18T05:03:47.623Z,27.43
2018-10-18T05:06:16.304Z,27.77
2018-10-18T05:08:44.992Z,30.00
2018-10-18T05:11:13.705Z,30.60
2018-10-18T05:13:42.357Z,29.30
2018-10-18T05:16:11.035Z,26.85
2018-10-18T05:18:39.724Z,26.87
2018-10-18T05:21:08.391Z,30.83
2018-10-18T05:23:37.123Z,32.67
2018-10-18T05:26:06.283Z,32.50
2018-10-18T05:28:35.008Z,30.63
2018-10-18T05:31:03.746Z,31.47
2018-10-18T05:33:33.199Z,30.17
2018-10-18T05:36:01.887Z,32.57
2018-10-18T05:38:30.572Z,36.57
2018-10-18T05:40:59.244Z,33.93
2018-10-18T05:43:27.931Z,31.00
2018-10-18T05:45:56.716Z,31.57
2018-10-18T05:48:25.436Z,30.52
2018-10-18T05:50:54.175Z,30.45
2018-10-18T05:53:22.883Z,33.03
2018-10-18T05:55:51.543Z,28.62
2018-10-18T05:58:20.230Z,31.42
2018-10-18T06:00:48.920Z,30.03
2018-10-18T06:03:17.603Z,30.60
2018-10-18T06:05:46.292Z,28.47
2018-10-18T06:08:14.970Z,29.73
2018-10-18T06:10:55.184Z,30.93
2018-10-18T06:13:23.872Z,25.63
2018-10-18T06:15:52.564Z,29.77
2018-10-18T06:18:21.250Z,26.75
2018-10-18T06:20:49.944Z,29.87
2018-10-18T06:23:18.685Z,27.40
2018-10-18T06:25:47.320Z,26.73
2018-10-18T06:28:16.005Z,27.27
2018-10-18T06:30:44.690Z,28.43
2018-10-18T06:33:13.442Z,27.93
2018-10-18T06:35:42.100Z,28.27
2018-10-18T06:38:10.777Z,28.60
2018-10-18T06:40:39.472Z,34.87
2018-10-18T06:43:08.187Z,25.97
2018-10-18T06:45:36.861Z,27.17
2018-10-18T06:48:06.207Z,24.80
2018-10-18T06:50:34.855Z,28.23
2018-10-18T06:53:03.563Z,26.00
2018-10-18T06:55:32.227Z,25.50
2018-10-18T06:58:01.420Z,24.63
2018-10-18T07:00:31.161Z,23.27
2018-10-18T07:02:59.826Z,26.87
2018-10-18T07:05:28.535Z,25.43
2018-10-18T07:07:57.224Z,27.70
2018-10-18T07:10:25.908Z,28.70
2018-10-18T07:12:54.592Z,26.67
2018-10-18T07:15:24.188Z,27.90
2018-10-18T07:17:52.877Z,29.07
2018-10-18T07:20:21.577Z,28.47
2018-10-18T07:22:50.255Z,29.93
2018-10-18T07:25:18.978Z,31.57
2018-10-18T07:27:47.634Z,32.73
2018-10-18T07:30:16.407Z,31.35
2018-10-18T07:32:45.084Z,31.00
2018-10-18T07:35:14.492Z,32.73
2018-10-18T07:37:43.108Z,33.57
2018-10-18T07:40:14.347Z,35.60
2018-10-18T07:42:43.066Z,36.97
2018-10-18T07:45:12.843Z,36.87
2018-10-18T07:47:42.236Z,35.80
2018-10-18T07:50:11.444Z,39.13
2018-10-18T07:52:40.124Z,34.75
2018-10-18T07:55:09.630Z,37.47
2018-10-18T07:57:38.335Z,38.77
2018-10-18T08:00:09.737Z,47.63
2018-10-18T08:02:39.367Z,44.60
2018-10-18T08:05:08.671Z,43.50
2018-10-18T08:07:37.547Z,42.78
2018-10-18T08:10:08.465Z,44.37
2018-10-18T08:12:37.133Z,44.38
2018-10-18T08:15:07.127Z,48.13
2018-10-18T08:17:35.811Z,45.90
2018-10-18T08:20:04.508Z,43.23
2018-10-18T08:22:33.276Z,44.87
2018-10-18T08:25:01.934Z,44.73
2018-10-18T08:27:30.559Z,42.67
2018-10-18T08:29:59.327Z,41.07
2018-10-18T08:32:28.044Z,42.23
2018-10-18T08:34:56.761Z,42.63
2018-10-18T08:37:25.989Z,43.25
2018-10-18T08:39:55.375Z,42.80
2018-10-18T08:42:28.124Z,39.77
2018-10-18T08:44:57.158Z,38.67
2018-10-18T08:47:25.512Z,39.50
2018-10-18T08:49:54.255Z,40.63
2018-10-18T08:52:22.907Z,38.23
2018-10-18T08:54:51.651Z,41.10
2018-10-18T08:57:20.331Z,39.83
2018-10-18T08:59:49.019Z,38.00
2018-10-18T09:02:17.719Z,37.17
2018-10-18T09:04:46.615Z,38.63
2018-10-18T09:07:15.377Z,37.97
2018-10-18T09:09:43.991Z,39.53
2018-10-18T09:12:12.683Z,41.10
2018-10-18T09:14:41.387Z,39.75
2018-10-18T09:17:10.074Z,39.93
2018-10-18T09:19:38.760Z,37.97
2018-10-18T09:22:07.499Z,39.07
2018-10-18T09:24:36.215Z,40.57
2018-10-18T09:27:04.940Z,39.03
2018-10-18T09:29:33.687Z,39.97
2018-10-18T09:32:02.396Z,41.03
2018-10-18T09:34:31.076Z,39.35
2018-10-18T09:36:59.786Z,37.67
2018-10-18T09:39:28.576Z,39.30
2018-10-18T09:41:57.268Z,40.73
2018-10-18T09:44:26.068Z,41.00
2018-10-18T09:46:54.659Z,39.53
2018-10-18T09:49:23.343Z,40.40
2018-10-18T09:51:52.035Z,39.13
2018-10-18T09:54:20.724Z,41.10
2018-10-18T09:56:49.416Z,42.67
2018-10-18T09:59:18.095Z,40.20
2018-10-18T10:01:51.988Z,41.87
2018-10-18T10:04:20.732Z,44.67
2018-10-18T10:06:49.373Z,40.63
2018-10-18T10:09:18.051Z,39.47
2018-10-18T10:11:46.820Z,40.07
2018-10-18T10:14:15.427Z,40.63
2018-10-18T10:16:44.115Z,43.58
2018-10-18T10:19:12.849Z,43.53
2018-10-18T10:21:41.527Z,42.97
2018-10-18T10:24:10.207Z,41.98
2018-10-18T10:26:38.900Z,40.47
2018-10-18T10:29:07.627Z,40.73
2018-10-18T10:31:36.324Z,46.17
2018-10-18T10:34:05.020Z,42.30
2018-10-18T10:36:33.713Z,41.40
2018-10-18T10:39:02.446Z,42.00
2018-10-18T10:41:31.120Z,41.43
2018-10-18T10:43:59.864Z,39.90
2018-10-18T10:46:28.508Z,42.80
2018-10-18T10:48:57.252Z,40.83
2018-10-18T10:51:25.903Z,39.93
2018-10-18T10:53:54.648Z,39.80
2018-10-18T10:56:23.311Z,40.10
2018-10-18T10:58:52.021Z,38.87
2018-10-18T11:01:22.682Z,38.27
2018-10-18T11:03:52.795Z,37.67
2018-10-18T11:06:21.587Z,36.63
2018-10-18T11:08:50.287Z,40.00
2018-10-18T11:11:19.480Z,38.40
2018-10-18T11:13:48.364Z,37.95
2018-10-18T11:16:17.051Z,39.87
2018-10-18T11:18:45.727Z,39.13
2018-10-18T11:21:15.856Z,40.23
2018-10-18T11:23:45.218Z,39.70
2018-10-18T11:26:14.023Z,34.73
2018-10-18T11:28:42.613Z,33.40
2018-10-18T11:31:11.306Z,38.05
2018-10-18T11:33:39.992Z,38.07
2018-10-18T11:36:08.788Z,34.53
2018-10-18T11:38:37.432Z,37.70
2018-10-18T11:41:06.145Z,37.93
2018-10-18T11:43:34.841Z,36.07
2018-10-18T11:46:03.549Z,35.90
2018-10-18T11:48:32.362Z,36.67
2018-10-18T11:51:01.228Z,35.68
2018-10-18T11:53:29.917Z,37.70
2018-10-18T11:55:58.689Z,38.73
2018-10-18T11:58:27.366Z,36.97
2018-10-18T12:00:56.048Z,37.10
2018-10-18T12:03:24.749Z,36.03
2018-10-18T12:05:53.445Z,36.37
2018-10-18T12:08:22.136Z,35.57
2018-10-18T12:10:50.838Z,33.33
2018-10-18T12:13:19.529Z,33.77
2018-10-18T12:15:48.289Z,32.57
2018-10-18T12:18:16.989Z,32.30
2018-10-18T12:20:45.682Z,32.47
2018-10-18T12:23:14.472Z,31.97
2018-10-18T12:25:43.106Z,29.43
2018-10-18T12:28:11.805Z,29.47
2018-10-18T12:30:40.496Z,30.23
2018-10-18T12:33:09.324Z,31.15
2018-10-18T12:35:38.022Z,33.20
2018-10-18T12:38:06.811Z,33.00
2018-10-18T12:40:35.555Z,34.53
2018-10-18T12:43:04.137Z,35.30
2018-10-18T12:45:32.845Z,33.83
2018-10-18T12:48:01.598Z,35.17
2018-10-18T12:50:30.272Z,36.60
2018-10-18T12:52:58.981Z,39.47
2018-10-18T12:55:27.681Z,38.60
2018-10-18T12:57:56.420Z,38.47
2018-10-18T13:00:25.121Z,37.80
2018-10-18T13:02:53.861Z,36.47
2018-10-18T13:05:22.569Z,38.10
2018-10-18T13:07:51.293Z,39.13
2018-10-18T13:10:20.013Z,38.73
2018-10-18T13:12:48.732Z,37.87
2018-10-18T13:15:17.419Z,37.27
2018-10-18T13:17:46.121Z,38.20
2018-10-18T13:20:14.881Z,39.00
2018-10-18T13:22:43.533Z,37.50
2018-10-18T13:25:12.276Z,40.53
2018-10-18T13:27:40.933Z,38.47
2018-10-18T13:30:10.565Z,37.67
2018-10-18T13:32:39.849Z,37.60
2018-10-18T13:35:08.926Z,37.23
2018-10-18T13:37:37.629Z,39.33
2018-10-18T13:40:07.309Z,40.03
2018-10-18T13:42:36.009Z,39.53
2018-10-18T13:45:05.341Z,39.93
2018-10-18T13:47:34.073Z,39.00
2018-10-18T13:50:03.075Z,39.43
2018-10-18T13:52:31.725Z,38.80
2018-10-18T13:55:00.429Z,41.90
2018-10-18T13:57:29.149Z,40.53
2018-10-18T14:00:23.806Z,41.17
2018-10-18T14:02:53.250Z,41.03
2018-10-18T14:05:22.273Z,42.63
2018-10-18T14:07:51.991Z,43.10
2018-10-18T14:10:20.661Z,44.23
2018-10-18T14:12:49.836Z,44.67
2018-10-18T14:15:18.537Z,42.47
2018-10-18T14:17:47.316Z,42.37
2018-10-18T14:20:15.978Z,39.87
2018-10-18T14:22:45.185Z,45.12
2018-10-18T14:25:13.893Z,43.63
2018-10-18T14:27:42.605Z,43.37
2018-10-18T14:30:12.508Z,41.27
2018-10-18T14:32:41.397Z,42.87
2018-10-18T14:35:11.500Z,42.97
2018-10-18T14:37:40.210Z,43.37
2018-10-18T14:40:10.479Z,42.70
2018-10-18T14:42:39.270Z,42.23
2018-10-18T14:45:08.792Z,43.23
2018-10-18T14:47:37.358Z,44.08
2018-10-18T14:50:07.911Z,46.27
2018-10-18T14:52:36.589Z,44.70
2018-10-18T14:55:05.682Z,46.53
2018-10-18T14:57:34.373Z,45.90
2018-10-18T15:00:03.279Z,44.42
2018-10-18T15:02:31.972Z,45.60
2018-10-18T15:05:00.813Z,46.13
2018-10-18T15:07:29.369Z,45.47
2018-10-18T15:09:58.057Z,47.50
2018-10-18T15:12:26.801Z,45.17
2018-10-18T15:14:55.473Z,44.83
2018-10-18T15:17:24.153Z,48.17
2018-10-18T15:19:52.857Z,44.87
2018-10-18T15:22:21.582Z,46.17
2018-10-18T15:24:50.279Z,47.37
2018-10-18T15:27:19.112Z,47.07
2018-10-18T15:29:47.689Z,47.33
2018-10-18T15:32:16.419Z,44.55
2018-10-18T15:34:45.096Z,43.98
2018-10-18T15:37:13.909Z,46.57
2018-10-18T15:39:42.642Z,45.73
2018-10-18T15:42:11.285Z,47.03
2018-10-18T15:44:40.001Z,45.20
2018-10-18T15:47:08.734Z,46.40
2018-10-18T15:49:37.412Z,47.53
2018-10-18T15:52:06.107Z,49.90
2018-10-18T15:54:34.831Z,47.70
2018-10-18T15:57:03.537Z,47.47
2018-10-18T15:59:32.225Z,48.90
2018-10-18T16:02:00.929Z,44.80
2018-10-18T16:04:29.640Z,47.20
2018-10-18T16:06:58.381Z,46.17
2018-10-18T16:09:27.093Z,45.50
2018-10-18T16:11:55.805Z,48.50
2018-10-18T16:14:24.513Z,49.33
2018-10-18T16:16:53.252Z,49.40
2018-10-18T16:19:21.926Z,50.53
2018-10-18T16:21:50.689Z,49.07
2018-10-18T16:24:19.439Z,49.83
2018-10-18T16:26:48.312Z,49.37
2018-10-18T16:29:17.100Z,50.70
2018-10-18T16:31:45.725Z,52.03
2018-10-18T16:34:14.441Z,49.60
2018-10-18T16:36:43.145Z,51.20
2018-10-18T16:39:13.178Z,53.63
2018-10-18T16:41:42.297Z,52.17
2018-10-18T16:44:11.038Z,50.30
2018-10-18T16:46:39.674Z,47.97
2018-10-18T16:49:08.636Z,53.57
2018-10-18T16:51:37.341Z,52.40
2018-10-18T16:54:06.251Z,49.88
2018-10-18T16:56:34.952Z,51.13
2018-10-18T16:59:03.673Z,51.97
2018-10-18T17:01:32.373Z,53.03
2018-10-18T17:04:01.139Z,51.30
2018-10-18T17:06:29.823Z,48.13
2018-10-18T17:08:58.510Z,50.33
2018-10-18T17:11:27.312Z,49.57
2018-10-18T17:13:55.938Z,51.17
2018-10-18T17:16:24.625Z,49.87
2018-10-18T17:18:53.340Z,48.38
2018-10-18T17:21:22.038Z,48.10
2018-10-18T17:23:50.757Z,48.17
2018-10-18T17:26:19.501Z,45.37
2018-10-18T17:28:48.196Z,45.70
2018-10-18T17:31:16.912Z,46.43
2018-10-18T17:33:45.612Z,48.77
2018-10-18T17:36:14.358Z,47.03
2018-10-18T17:38:43.033Z,48.17
2018-10-18T17:41:12.162Z,48.33
2018-10-18T17:43:40.862Z,46.60
2018-10-18T17:46:09.652Z,46.33
2018-10-18T17:48:38.281Z,48.23
2018-10-18T17:51:06.999Z,45.93
2018-10-18T17:53:35.717Z,47.77
2018-10-18T17:56:04.747Z,50.55
2018-10-18T17:58:33.397Z,42.87
2018-10-18T18:01:02.159Z,45.33
2018-10-18T18:03:31.113Z,48.97
2018-10-18T18:05:59.879Z,46.27
2018-10-18T18:08:28.513Z,47.57
2018-10-18T18:10:57.231Z,44.40
2018-10-18T18:13:25.933Z,44.63
2018-10-18T18:15:54.655Z,44.47
2018-10-18T18:18:23.351Z,45.57
2018-10-18T18:20:52.113Z,43.03
2018-10-18T18:23:20.809Z,47.77
2018-10-18T18:25:49.517Z,46.07
2018-10-18T18:28:18.209Z,43.73
2018-10-18T18:30:47.149Z,49.60
2018-10-18T18:33:15.844Z,49.77
2018-10-18T18:35:44.541Z,47.87
2018-10-18T18:38:13.258Z,43.67
2018-10-18T18:40:41.957Z,45.08
2018-10-18T18:43:10.657Z,48.37
2018-10-18T18:45:39.422Z,48.97
2018-10-18T18:48:08.093Z,47.70
2018-10-18T18:50:36.801Z,46.37
2018-10-18T18:53:05.769Z,45.63
2018-10-18T18:55:34.433Z,46.40
2018-10-18T18:58:03.138Z,45.60
2018-10-18T19:00:31.858Z,50.70
2018-10-18T19:03:00.561Z,48.10
2018-10-18T19:05:29.265Z,46.77
2018-10-18T19:07:57.960Z,44.97
2018-10-18T19:10:27.173Z,43.50
2018-10-18T19:12:55.873Z,41.17
2018-10-18T19:15:24.585Z,45.07
2018-10-18T19:17:53.269Z,41.13
2018-10-18T19:20:21.983Z,43.67
2018-10-18T19:22:50.847Z,45.37
2018-10-18T19:25:19.433Z,38.95
2018-10-18T19:27:48.329Z,40.70
2018-10-18T19:30:17.037Z,42.50
2018-10-18T19:32:45.729Z,38.43
2018-10-18T19:35:14.445Z,38.03
2018-10-18T19:37:43.141Z,35.00
2018-10-18T19:40:11.862Z,39.83
2018-10-18T19:42:40.561Z,38.70
2018-10-18T19:45:09.753Z,34.63
2018-10-18T19:47:38.737Z,33.90
2018-10-18T19:50:07.894Z,33.90
2018-10-18T19:52:36.798Z,33.05
2018-10-18T19:55:06.906Z,34.13
2018-10-18T19:57:35.613Z,30.83
2018-10-18T20:00:04.674Z,33.80
2018-10-18T20:02:33.385Z,28.90
2018-10-18T20:05:02.112Z,32.30
2018-10-18T20:07:30.814Z,27.97
2018-10-18T20:09:59.518Z,31.33
2018-10-18T20:12:29.090Z,29.80
2018-10-18T20:14:57.870Z,26.87
2018-10-18T20:17:26.521Z,27.20
2018-10-18T20:19:55.305Z,28.80
2018-10-18T20:22:24.270Z,25.92
2018-10-18T20:24:53.338Z,26.87
2018-10-18T20:27:21.988Z,29.73
2018-10-18T20:29:50.685Z,25.93
2018-10-18T20:32:19.444Z,28.60
2018-10-18T20:34:48.189Z,28.92
2018-10-18T20:37:17.061Z,27.83
2018-10-18T20:39:45.851Z,24.00
2018-10-18T20:42:14.474Z,28.57
2018-10-18T20:44:43.189Z,27.32
2018-10-18T20:47:12.019Z,25.67
2018-10-18T20:49:40.576Z,27.40
2018-10-18T20:52:09.454Z,27.07
2018-10-18T20:54:38.160Z,28.50
2018-10-18T20:57:06.905Z,27.73
2018-10-18T20:59:35.954Z,27.27
2018-10-18T21:02:04.877Z,24.20
2018-10-18T21:04:33.569Z,24.10
2018-10-18T21:07:02.277Z,28.00
2018-10-18T21:09:30.973Z,25.33
2018-10-18T21:11:59.680Z,25.80
2018-10-18T21:14:28.349Z,20.63
2018-10-18T21:16:57.073Z,22.32
2018-10-18T21:19:25.734Z,23.03
2018-10-18T21:21:54.494Z,21.93
2018-10-18T21:24:23.180Z,18.37
2018-10-18T21:26:51.932Z,19.77
2018-10-18T21:29:20.601Z,23.83
2018-10-18T21:31:49.301Z,18.33
2018-10-18T21:34:18.197Z,18.37
2018-10-18T21:36:46.820Z,19.83
2018-10-18T21:39:22.381Z,21.43
2018-10-18T21:41:51.076Z,21.13
2018-10-18T21:44:19.781Z,21.10
2018-10-18T21:46:48.485Z,22.63
2018-10-18T21:49:17.181Z,21.47
2018-10-18T21:51:45.885Z,20.67
2018-10-18T21:54:15.193Z,19.50
2018-10-18T21:56:43.897Z,19.80
2018-10-18T21:59:12.646Z,21.23
2018-10-18T22:01:41.342Z,19.40
2018-10-18T22:04:10.037Z,20.53
2018-10-18T22:06:38.745Z,18.27
2018-10-18T22:09:07.671Z,18.60
2018-10-18T22:11:36.807Z,17.53
2018-10-18T22:14:06.327Z,17.43
2018-10-18T22:16:35.298Z,16.73
2018-10-18T22:19:04.240Z,19.17
2018-10-18T22:21:33.178Z,16.67
2018-10-18T22:24:01.915Z,19.00
2018-10-18T22:26:30.753Z,13.23
2018-10-18T22:28:59.469Z,16.45
2018-10-18T22:31:28.194Z,14.13
2018-10-18T22:33:57.105Z,15.97
2018-10-18T22:36:26.105Z,15.97
2018-10-18T22:38:54.993Z,15.83
2018-10-18T22:41:23.889Z,17.30
2018-10-18T22:43:52.587Z,17.05
2018-10-18T22:46:21.298Z,14.80
2018-10-18T22:48:49.985Z,14.00
2018-10-18T22:51:18.718Z,13.93
2018-10-18T22:53:47.409Z,14.90
2018-10-18T22:56:16.118Z,13.30
2018-10-18T22:58:44.931Z,13.17
2018-10-18T23:01:13.624Z,14.40
2018-10-18T23:03:42.332Z,13.93
2018-10-18T23:06:11.026Z,14.30
2018-10-18T23:08:39.733Z,15.33
2018-10-18T23:11:08.499Z,16.25
2018-10-18T23:13:37.233Z,16.50
2018-10-18T23:16:05.929Z,16.10
2018-10-18T23:18:34.636Z,16.20
2018-10-18T23:21:03.385Z,16.10
2018-10-18T23:23:32.045Z,17.90
2018-10-18T23:26:00.738Z,13.97
2018-10-18T23:28:29.437Z,13.83
2018-10-18T23:30:58.133Z,15.27
2018-10-18T23:33:26.845Z,13.27
2018-10-18T23:35:55.545Z,12.17
2018-10-18T23:38:24.257Z,11.53
2018-10-18T23:40:52.977Z,11.50
2018-10-18T23:43:21.662Z,11.13
2018-10-18T23:45:53.369Z,11.23
2018-10-18T23:48:22.365Z,10.13
2018-10-18T23:50:51.449Z,10.60
2018-10-18T23:53:20.145Z,10.70
2018-10-18T23:55:48.824Z,12.23
2018-10-18T23:58:17.522Z,13.05
